Time;durP1;ratioP1;P1;durP2;ratioP2;P2;SDS_P1;SDS_P2;PMS_P1;PMS_P2;Temp;Humidity;BMP_temperature;BMP_pressure;BME280_temperature;BME280_humidity;BME280_pressure;Samples;Min_cycle;Max_cycle;Signal;HPM_P1;HPM_P2
2021/01/31 00:06:49;;;;;;;7.75;7.00;;;;;;;;;;4194806;34;20202;-47
2021/01/31 00:09:16;;;;;;;8.30;7.50;;;;;;;;;;4193874;34;20125;-51
2021/01/31 00:11:43;;;;;;;8.65;7.75;;;;;;;;;;4207331;34;20513;-52
2021/01/31 00:14:10;;;;;;;7.82;7.12;;;;;;;;;;4195937;34;20109;-53
2021/01/31 00:16:38;;;;;;;8.50;7.80;;;;;;;;;;4208879;34;20137;-52
2021/01/31 00:19:05;;;;;;;8.57;7.78;;;;;;;;;;4207389;34;20190;-51
2021/01/31 00:21:32;;;;;;;8.80;7.90;;;;;;;;;;4208819;34;20640;-49
2021/01/31 00:23:59;;;;;;;9.27;8.25;;;;;;;;;;4208860;34;20113;-49
2021/01/31 00:26:26;;;;;;;9.45;8.65;;;;;;;;;;4207161;34;20133;-51
2021/01/31 00:28:55;;;;;;;9.52;8.35;;;;;;;;;;4208714;34;20441;-50
2021/01/31 00:31:22;;;;;;;10.00;9.10;;;;;;;;;;4208581;34;20114;-50
2021/01/31 00:33:50;;;;;;;10.55;9.55;;;;;;;;;;4208662;34;20129;-49
2021/01/31 00:36:17;;;;;;;9.02;8.23;;;;;;;;;;4208260;34;20089;-48
2021/01/31 00:38:45;;;;;;;9.35;8.55;;;;;;;;;;4206381;34;20148;-54
2021/01/31 00:41:14;;;;;;;9.73;8.85;;;;;;;;;;4204818;34;20547;-55
2021/01/31 00:43:40;;;;;;;9.43;8.45;;;;;;;;;;4204620;34;20117;-51
2021/01/31 00:46:07;;;;;;;8.63;7.70;;;;;;;;;;4206002;34;20121;-54
2021/01/31 00:48:35;;;;;;;9.40;8.50;;;;;;;;;;4206077;34;20202;-53
2021/01/31 00:51:02;;;;;;;9.00;8.20;;;;;;;;;;4204457;34;20424;-54
2021/01/31 00:53:29;;;;;;;9.93;8.90;;;;;;;;;;4206262;34;20540;-48
2021/01/31 00:55:57;;;;;;;9.30;8.40;;;;;;;;;;4204803;34;20101;-52
2021/01/31 00:58:25;;;;;;;9.82;8.93;;;;;;;;;;4193744;34;20461;-49
2021/01/31 01:00:56;;;;;;;8.85;8.07;;;;;;;;;;4204851;34;20225;-48
2021/01/31 01:03:24;;;;;;;8.70;7.90;;;;;;;;;;4204718;34;20173;-49
2021/01/31 01:05:52;;;;;;;8.57;7.75;;;;;;;;;;4205734;34;20144;-48
2021/01/31 01:08:25;;;;;;;7.95;7.05;;;;;;;;;;4206083;34;20194;-47
2021/01/31 01:10:53;;;;;;;7.68;6.90;;;;;;;;;;4205723;34;20217;-46
2021/01/31 01:13:21;;;;;;;7.65;6.95;;;;;;;;;;4205770;34;20125;-52
2021/01/31 01:15:52;;;;;;;7.68;6.97;;;;;;;;;;4205956;34;20101;-48
2021/01/31 01:18:19;;;;;;;8.10;7.30;;;;;;;;;;4204373;34;20192;-48
2021/01/31 01:20:46;;;;;;;7.70;7.00;;;;;;;;;;4205714;34;20132;-48
2021/01/31 01:23:14;;;;;;;7.43;6.55;;;;;;;;;;4192835;34;20094;-48
2021/01/31 01:25:41;;;;;;;7.40;6.70;;;;;;;;;;4204154;34;20117;-48
2021/01/31 01:28:13;;;;;;;7.03;6.35;;;;;;;;;;4204321;34;20217;-50
2021/01/31 01:30:40;;;;;;;9.25;7.65;;;;;;;;;;4205771;34;20616;-48
2021/01/31 01:33:07;;;;;;;6.68;5.93;;;;;;;;;;4205612;34;20533;-48
2021/01/31 01:35:34;;;;;;;7.25;6.47;;;;;;;;;;4205622;34;20132;-47
2021/01/31 01:38:01;;;;;;;7.37;5.82;;;;;;;;;;4205543;34;20133;-47
2021/01/31 01:40:32;;;;;;;6.90;5.37;;;;;;;;;;4204042;34;20137;-49
2021/01/31 01:42:59;;;;;;;5.18;4.60;;;;;;;;;;4205866;34;20509;-47
2021/01/31 01:45:29;;;;;;;6.05;4.87;;;;;;;;;;4205707;34;20141;-49
2021/01/31 01:48:19;;;;;;;6.00;5.30;;;;;;;;;;4203817;34;20519;-48
2021/01/31 01:50:53;;;;;;;5.10;4.60;;;;;;;;;;4204056;34;20146;-49
2021/01/31 01:53:22;;;;;;;5.70;5.20;;;;;;;;;;4204101;34;20217;-47
2021/01/31 01:55:52;;;;;;;5.62;5.03;;;;;;;;;;4203787;34;20106;-47
2021/01/31 01:58:19;;;;;;;5.95;5.40;;;;;;;;;;4205531;34;20226;-47
2021/01/31 02:00:47;;;;;;;5.35;4.62;;;;;;;;;;4205323;34;20112;-47
2021/01/31 02:03:28;;;;;;;6.37;4.78;;;;;;;;;;4192541;34;20117;-48
2021/01/31 02:06:05;;;;;;;5.90;4.53;;;;;;;;;;4193506;34;20183;-47
2021/01/31 02:08:32;;;;;;;6.07;5.07;;;;;;;;;;4204123;34;20499;-47
2021/01/31 02:11:02;;;;;;;5.32;4.20;;;;;;;;;;4192434;34;20124;-48
2021/01/31 02:13:29;;;;;;;4.65;4.25;;;;;;;;;;4203861;34;20192;-47
2021/01/31 02:15:59;;;;;;;5.12;4.62;;;;;;;;;;4181437;34;20128;-47
2021/01/31 02:18:29;;;;;;;4.28;3.87;;;;;;;;;;4192395;34;20494;-49
2021/01/31 02:21:05;;;;;;;4.62;4.18;;;;;;;;;;4203872;34;20137;-48
2021/01/31 02:24:05;;;;;;;4.65;4.25;;;;;;;;;;4205259;34;20094;-48
2021/01/31 02:26:49;;;;;;;4.82;4.35;;;;;;;;;;4205329;34;20122;-51
2021/01/31 02:29:49;;;;;;;4.70;4.30;;;;;;;;;;4205392;34;20136;-49
2021/01/31 02:32:46;;;;;;;4.80;4.30;;;;;;;;;;4205403;34;20160;-50
2021/01/31 02:35:18;;;;;;;5.07;4.22;;;;;;;;;;4203778;34;20117;-48
2021/01/31 02:37:57;;;;;;;6.40;4.25;;;;;;;;;;4193131;34;20167;-50
2021/01/31 02:40:36;;;;;;;4.57;4.18;;;;;;;;;;4192516;34;20112;-49
2021/01/31 02:43:18;;;;;;;5.22;4.72;;;;;;;;;;4204023;34;20190;-49
2021/01/31 02:45:48;;;;;;;4.97;4.40;;;;;;;;;;4192594;34;20129;-50
2021/01/31 02:48:19;;;;;;;5.03;4.62;;;;;;;;;;4192122;34;20114;-49
2021/01/31 02:50:53;;;;;;;5.43;4.28;;;;;;;;;;4203704;34;20110;-51
2021/01/31 02:53:32;;;;;;;5.40;4.87;;;;;;;;;;4192473;34;20129;-48
2021/01/31 02:56:07;;;;;;;4.97;4.47;;;;;;;;;;4192445;34;20113;-48
2021/01/31 02:58:45;;;;;;;5.87;4.40;;;;;;;;;;4204921;34;20544;-48
2021/01/31 03:01:21;;;;;;;5.85;4.43;;;;;;;;;;4191272;34;20117;-49
2021/01/31 03:03:59;;;;;;;5.00;3.95;;;;;;;;;;4203647;34;20121;-49
2021/01/31 03:06:31;;;;;;;5.75;4.55;;;;;;;;;;4191959;34;20221;-49
2021/01/31 03:09:21;;;;;;;6.78;4.43;;;;;;;;;;4192502;34;20128;-49
2021/01/31 03:11:57;;;;;;;5.25;4.03;;;;;;;;;;4182659;34;20526;-49
2021/01/31 03:14:51;;;;;;;5.75;4.22;;;;;;;;;;4192082;34;20137;-49
2021/01/31 03:17:38;;;;;;;3.90;3.50;;;;;;;;;;4204672;34;20140;-55
2021/01/31 03:20:19;;;;;;;4.55;3.62;;;;;;;;;;4192505;34;20102;-49
2021/01/31 03:23:00;;;;;;;4.50;4.10;;;;;;;;;;4192972;34;20110;-48
2021/01/31 03:25:39;;;;;;;5.20;4.70;;;;;;;;;;4203265;34;20124;-49
2021/01/31 03:28:07;;;;;;;5.32;3.70;;;;;;;;;;4192091;34;20098;-51
2021/01/31 03:30:34;;;;;;;5.25;3.53;;;;;;;;;;4203157;34;20102;-48
2021/01/31 03:33:02;;;;;;;6.37;4.25;;;;;;;;;;4203059;34;20489;-48
2021/01/31 03:35:38;;;;;;;5.18;3.65;;;;;;;;;;4202916;34;20124;-52
2021/01/31 03:38:17;;;;;;;4.47;3.90;;;;;;;;;;4192060;34;20122;-50
2021/01/31 03:40:46;;;;;;;3.67;2.97;;;;;;;;;;4203183;34;20554;-48
2021/01/31 03:43:14;;;;;;;4.80;3.50;;;;;;;;;;4191869;34;20192;-49
2021/01/31 03:45:53;;;;;;;4.97;3.65;;;;;;;;;;4204260;34;20119;-48
2021/01/31 03:48:23;;;;;;;5.72;3.87;;;;;;;;;;4203232;34;20098;-48
2021/01/31 03:50:50;;;;;;;3.80;3.12;;;;;;;;;;4191911;34;20090;-49
2021/01/31 03:53:17;;;;;;;4.00;3.33;;;;;;;;;;4203111;34;20136;-48
2021/01/31 03:55:44;;;;;;;3.80;3.25;;;;;;;;;;4191328;34;20117;-49
2021/01/31 03:58:15;;;;;;;5.37;3.42;;;;;;;;;;4191579;34;20121;-49
2021/01/31 04:00:51;;;;;;;4.82;3.30;;;;;;;;;;4191851;34;20137;-49
2021/01/31 04:03:21;;;;;;;3.45;3.03;;;;;;;;;;4191454;34;20130;-49
2021/01/31 04:06:14;;;;;;;3.65;2.87;;;;;;;;;;4203975;34;20094;-53
2021/01/31 04:08:45;;;;;;;3.47;2.92;;;;;;;;;;4204336;34;20102;-50
2021/01/31 04:11:32;;;;;;;3.60;3.10;;;;;;;;;;4191638;34;20118;-53
2021/01/31 04:14:13;;;;;;;3.10;2.78;;;;;;;;;;4204817;34;20116;-50
2021/01/31 04:16:45;;;;;;;3.22;2.92;;;;;;;;;;4204971;34;20177;-54
2021/01/31 04:19:12;;;;;;;3.55;3.05;;;;;;;;;;4204936;34;20135;-50
2021/01/31 04:21:41;;;;;;;3.47;3.17;;;;;;;;;;4205005;34;20522;-50
2021/01/31 04:24:11;;;;;;;4.47;2.97;;;;;;;;;;4206284;34;20205;-50
2021/01/31 04:26:38;;;;;;;3.03;2.70;;;;;;;;;;4206477;34;20104;-52
2021/01/31 04:29:06;;;;;;;2.87;2.60;;;;;;;;;;4206319;34;20086;-53
2021/01/31 04:31:33;;;;;;;3.25;2.80;;;;;;;;;;4204887;34;20132;-50
2021/01/31 04:34:03;;;;;;;3.25;2.95;;;;;;;;;;4204706;34;20117;-51
2021/01/31 04:36:31;;;;;;;4.22;3.10;;;;;;;;;;4193758;34;20220;-50
2021/01/31 04:38:57;;;;;;;3.40;2.97;;;;;;;;;;4204764;34;20549;-51
2021/01/31 04:41:30;;;;;;;3.62;2.95;;;;;;;;;;4206073;34;20546;-50
2021/01/31 04:43:57;;;;;;;3.15;2.80;;;;;;;;;;4193817;34;20129;-49
2021/01/31 04:46:41;;;;;;;2.80;2.50;;;;;;;;;;4204838;34;20489;-49
2021/01/31 04:49:14;;;;;;;3.47;3.00;;;;;;;;;;4206203;34;20202;-55
2021/01/31 04:52:04;;;;;;;3.15;2.70;;;;;;;;;;4206685;34;20113;-51
2021/01/31 04:55:27;;;;;;;3.28;2.92;;;;;;;;;;4204808;34;20125;-50
2021/01/31 04:58:06;;;;;;;3.40;2.85;;;;;;;;;;4193480;34;20522;-52
2021/01/31 05:00:40;;;;;;;3.33;3.03;;;;;;;;;;4206166;34;20182;-55
2021/01/31 05:03:11;;;;;;;3.20;2.90;;;;;;;;;;4204663;34;20186;-51
2021/01/31 05:05:50;;;;;;;3.20;2.80;;;;;;;;;;4193186;34;20198;-51
2021/01/31 05:08:19;;;;;;;2.95;2.70;;;;;;;;;;4194125;34;20165;-55
2021/01/31 05:10:50;;;;;;;4.40;3.00;;;;;;;;;;4206179;34;20532;-53
2021/01/31 05:13:28;;;;;;;4.47;4.00;;;;;;;;;;4204910;34;20121;-50
2021/01/31 05:16:13;;;;;;;3.08;2.80;;;;;;;;;;4206253;34;20624;-50
2021/01/31 05:18:51;;;;;;;3.40;2.70;;;;;;;;;;4194651;34;20109;-51
2021/01/31 05:21:22;;;;;;;3.12;2.83;;;;;;;;;;4204625;34;20138;-51
2021/01/31 05:23:53;;;;;;;4.20;3.25;;;;;;;;;;4193114;34;20201;-55
2021/01/31 05:26:22;;;;;;;2.80;2.60;;;;;;;;;;4193074;34;20124;-49
2021/01/31 05:28:59;;;;;;;3.50;3.20;;;;;;;;;;4193707;34;20524;-49
2021/01/31 05:31:27;;;;;;;3.55;2.90;;;;;;;;;;4193652;34;20095;-46
2021/01/31 05:33:57;;;;;;;3.50;2.90;;;;;;;;;;4193289;34;20522;-47
2021/01/31 05:36:32;;;;;;;4.78;3.40;;;;;;;;;;4205850;34;20209;-53
2021/01/31 05:39:07;;;;;;;3.50;2.70;;;;;;;;;;4204573;34;20169;-51
2021/01/31 05:41:48;;;;;;;4.03;3.28;;;;;;;;;;4193370;34;20121;-48
2021/01/31 05:44:16;;;;;;;4.07;3.30;;;;;;;;;;4204827;34;20133;-50
2021/01/31 05:46:47;;;;;;;3.97;2.80;;;;;;;;;;4206011;34;20137;-55
2021/01/31 05:49:40;;;;;;;4.03;3.20;;;;;;;;;;4205783;34;20536;-52
2021/01/31 05:52:19;;;;;;;3.47;3.03;;;;;;;;;;4204450;34;20126;-52
2021/01/31 05:54:48;;;;;;;2.92;2.60;;;;;;;;;;4205792;34;20137;-55
2021/01/31 05:57:30;;;;;;;3.80;3.35;;;;;;;;;;4193489;34;20124;-56
2021/01/31 05:59:59;;;;;;;4.03;3.20;;;;;;;;;;4204485;34;20141;-49
2021/01/31 06:02:40;;;;;;;3.37;3.08;;;;;;;;;;4194527;34;20126;-48
2021/01/31 06:05:16;;;;;;;4.80;3.47;;;;;;;;;;4203911;34;20237;-49
2021/01/31 06:07:44;;;;;;;2.90;2.67;;;;;;;;;;4205631;34;20113;-50
2021/01/31 06:10:15;;;;;;;3.25;2.80;;;;;;;;;;4192390;34;20197;-50
2021/01/31 06:12:48;;;;;;;3.90;3.00;;;;;;;;;;4192716;34;20114;-50
2021/01/31 06:15:22;;;;;;;3.03;2.72;;;;;;;;;;4192623;34;20098;-52
2021/01/31 06:18:01;;;;;;;5.78;2.80;;;;;;;;;;4205450;34;20114;-51
2021/01/31 06:20:36;;;;;;;4.07;2.50;;;;;;;;;;4192546;34;20136;-52
2021/01/31 06:23:35;;;;;;;4.87;2.65;;;;;;;;;;4182190;34;20090;-50
2021/01/31 06:26:05;;;;;;;3.70;3.12;;;;;;;;;;4194217;34;20191;-50
2021/01/31 06:28:42;;;;;;;4.75;3.60;;;;;;;;;;4205431;34;20179;-49
2021/01/31 06:31:46;;;;;;;7.65;5.50;;;;;;;;;;4192358;34;20207;-50
2021/01/31 06:34:15;;;;;;;5.57;4.20;;;;;;;;;;4193487;34;20102;-52
2021/01/31 06:36:52;;;;;;;3.90;3.50;;;;;;;;;;4203882;34;20110;-54
2021/01/31 06:39:34;;;;;;;4.60;3.72;;;;;;;;;;4203740;34;20138;-52
2021/01/31 06:42:08;;;;;;;5.57;3.97;;;;;;;;;;4205294;34;20178;-54
2021/01/31 06:45:17;;;;;;;4.12;3.25;;;;;;;;;;4203688;34;20109;-49
2021/01/31 06:47:45;;;;;;;4.85;2.95;;;;;;;;;;4177828;34;20109;-54
2021/01/31 06:50:36;;;;;;;6.32;3.53;;;;;;;;;;4188960;34;20138;-46
2021/01/31 06:53:15;;;;;;;6.22;3.28;;;;;;;;;;4195239;34;20204;-47
2021/01/31 06:56:26;;;;;;;4.07;3.08;;;;;;;;;;4203783;34;20141;-50
2021/01/31 06:59:34;;;;;;;3.95;2.70;;;;;;;;;;4200706;34;20124;-48
2021/01/31 07:02:37;;;;;;;2.60;2.40;;;;;;;;;;4203072;34;20210;-49
2021/01/31 07:05:10;;;;;;;3.12;2.30;;;;;;;;;;4204946;34;20125;-50
2021/01/31 07:07:56;;;;;;;3.60;2.78;;;;;;;;;;4205515;34;20731;-52
2021/01/31 07:10:22;;;;;;;2.60;2.40;;;;;;;;;;4203524;34;20165;-55
2021/01/31 07:12:58;;;;;;;3.00;2.70;;;;;;;;;;4205356;34;20117;-49
2021/01/31 07:15:25;;;;;;;2.62;2.15;;;;;;;;;;4204686;34;20126;-49
2021/01/31 07:17:57;;;;;;;2.65;2.40;;;;;;;;;;4192503;34;20572;-52
2021/01/31 07:20:30;;;;;;;3.12;2.47;;;;;;;;;;4192184;34;20546;-49
2021/01/31 07:23:16;;;;;;;3.83;2.87;;;;;;;;;;4192511;34;20200;-53
2021/01/31 07:25:57;;;;;;;4.68;2.50;;;;;;;;;;4193374;34;20449;-49
2021/01/31 07:28:38;;;;;;;3.03;2.60;;;;;;;;;;4193178;34;20122;-49
2021/01/31 07:31:23;;;;;;;3.70;2.87;;;;;;;;;;4203295;34;20182;-52
2021/01/31 07:34:11;;;;;;;4.07;2.87;;;;;;;;;;4205027;34;20461;-52
2021/01/31 07:36:40;;;;;;;7.20;3.97;;;;;;;;;;4204816;34;20109;-49
2021/01/31 07:39:14;;;;;;;3.62;3.25;;;;;;;;;;4204804;34;20123;-54
2021/01/31 07:41:50;;;;;;;5.82;4.57;;;;;;;;;;4203573;34;20547;-48
2021/01/31 07:44:20;;;;;;;6.62;4.97;;;;;;;;;;4192022;34;20116;-49
2021/01/31 07:46:49;;;;;;;5.95;5.00;;;;;;;;;;4205578;34;20495;-49
2021/01/31 07:49:19;;;;;;;6.05;4.32;;;;;;;;;;4205240;34;20621;-51
2021/01/31 07:51:49;;;;;;;4.87;3.87;;;;;;;;;;4205115;34;20450;-52
2021/01/31 07:54:27;;;;;;;3.97;3.42;;;;;;;;;;4206458;34;20133;-49
2021/01/31 07:56:57;;;;;;;3.65;3.22;;;;;;;;;;4205397;34;20110;-49
2021/01/31 07:59:26;;;;;;;6.00;5.15;;;;;;;;;;4193730;34;20132;-49
2021/01/31 08:01:57;;;;;;;6.07;3.83;;;;;;;;;;4193788;34;20117;-51
2021/01/31 08:04:36;;;;;;;4.85;3.60;;;;;;;;;;4204925;34;20126;-54
2021/01/31 08:07:08;;;;;;;5.65;3.00;;;;;;;;;;4206602;34;20109;-53
2021/01/31 08:09:41;;;;;;;4.62;3.37;;;;;;;;;;4194674;34;20118;-48
2021/01/31 08:12:12;;;;;;;6.30;4.57;;;;;;;;;;4206621;34;20535;-51
2021/01/31 08:15:00;;;;;;;5.03;4.45;;;;;;;;;;4206205;34;20459;-48
2021/01/31 08:17:55;;;;;;;7.15;5.05;;;;;;;;;;4206178;34;20481;-48
2021/01/31 08:20:30;;;;;;;7.15;5.18;;;;;;;;;;4206307;34;20113;-50
2021/01/31 08:23:01;;;;;;;4.97;4.28;;;;;;;;;;4204984;34;20604;-48
2021/01/31 08:25:53;;;;;;;4.62;3.97;;;;;;;;;;4206106;34;20125;-49
2021/01/31 08:28:25;;;;;;;7.12;4.90;;;;;;;;;;4206494;34;20101;-49
2021/01/31 08:31:13;;;;;;;6.20;5.53;;;;;;;;;;4193515;34;20134;-47
2021/01/31 08:33:41;;;;;;;4.90;4.30;;;;;;;;;;4206188;34;20106;-51
2021/01/31 08:36:20;;;;;;;6.72;5.22;;;;;;;;;;4193767;34;20122;-54
2021/01/31 08:38:54;;;;;;;7.22;5.45;;;;;;;;;;4187502;34;20208;-52
2021/01/31 08:41:30;;;;;;;4.85;4.32;;;;;;;;;;4194278;34;20495;-52
2021/01/31 08:47:03;;;;;;;5.78;3.65;;;;;;;;;;4157991;34;20406;-53
2021/01/31 08:49:30;;;;;;;4.53;3.00;;;;;;;;;;4162929;34;20130;-48
2021/01/31 08:51:57;;;;;;;4.05;2.30;;;;;;;;;;4164119;34;20102;-49
2021/01/31 08:54:25;;;;;;;4.90;2.72;;;;;;;;;;4175099;34;20123;-53
2021/01/31 08:57:00;;;;;;;7.80;4.25;;;;;;;;;;4165147;34;20699;-54
2021/01/31 08:59:39;;;;;;;5.87;4.10;;;;;;;;;;4174850;34;20134;-58
2021/01/31 09:02:18;;;;;;;6.00;4.45;;;;;;;;;;4161812;34;20103;-51
2021/01/31 09:04:54;;;;;;;5.50;4.35;;;;;;;;;;4174265;34;20202;-53
2021/01/31 09:07:39;;;;;;;5.03;3.70;;;;;;;;;;4170194;34;20466;-48
2021/01/31 09:10:21;;;;;;;5.90;4.15;;;;;;;;;;4175156;34;20203;-49
2021/01/31 09:12:50;;;;;;;5.75;3.97;;;;;;;;;;4175656;34;20118;-49
2021/01/31 09:15:33;;;;;;;5.93;4.40;;;;;;;;;;4164705;34;20133;-54
2021/01/31 09:18:08;;;;;;;4.65;4.15;;;;;;;;;;4153864;34;20145;-54
2021/01/31 09:20:34;;;;;;;4.47;3.83;;;;;;;;;;4175472;34;20190;-55
2021/01/31 09:23:13;;;;;;;6.18;5.55;;;;;;;;;;4175890;34;20110;-52
2021/01/31 09:25:39;;;;;;;8.57;6.65;;;;;;;;;;4164522;34;20106;-47
2021/01/31 09:28:20;;;;;;;4.47;4.00;;;;;;;;;;4176046;34;20120;-48
2021/01/31 09:30:47;;;;;;;7.28;4.90;;;;;;;;;;4154155;34;20118;-49
2021/01/31 09:33:19;;;;;;;7.45;4.68;;;;;;;;;;4153122;34;20105;-50
2021/01/31 09:35:45;;;;;;;4.87;3.75;;;;;;;;;;4175528;34;20094;-48
2021/01/31 09:38:18;;;;;;;6.60;4.75;;;;;;;;;;4153363;34;20543;-50
2021/01/31 09:40:44;;;;;;;6.25;5.55;;;;;;;;;;4164936;34;20126;-51
2021/01/31 09:43:14;;;;;;;4.95;4.20;;;;;;;;;;4159278;34;20126;-50
2021/01/31 09:45:42;;;;;;;4.53;3.47;;;;;;;;;;4183551;34;20533;-54
2021/01/31 09:48:10;;;;;;;4.35;3.20;;;;;;;;;;4179210;34;20112;-54
2021/01/31 09:50:37;;;;;;;5.12;4.45;;;;;;;;;;4179166;34;20103;-56
2021/01/31 09:53:04;;;;;;;5.85;4.25;;;;;;;;;;4190441;34;20290;-57
2021/01/31 09:55:43;;;;;;;5.62;4.15;;;;;;;;;;4190428;34;20110;-53
2021/01/31 09:58:37;;;;;;;8.73;5.12;;;;;;;;;;4191891;34;20129;-57
2021/01/31 10:01:30;;;;;;;6.53;3.83;;;;;;;;;;4179963;34;20185;-54
2021/01/31 10:04:00;;;;;;;5.50;3.85;;;;;;;;;;4188271;34;20599;-56
2021/01/31 10:06:43;;;;;;;6.72;3.70;;;;;;;;;;4190455;34;20171;-49
2021/01/31 10:09:09;;;;;;;6.70;4.80;;;;;;;;;;4189801;34;20102;-52
2021/01/31 10:11:45;;;;;;;5.57;4.80;;;;;;;;;;4191683;34;20145;-56
2021/01/31 10:14:12;;;;;;;8.77;5.10;;;;;;;;;;4191280;34;20113;-50
2021/01/31 10:16:41;;;;;;;5.62;4.75;;;;;;;;;;4190088;34;20185;-49
2021/01/31 10:19:11;;;;;;;5.43;4.25;;;;;;;;;;4189869;34;20115;-47
2021/01/31 10:21:55;;;;;;;5.25;3.67;;;;;;;;;;4191331;34;20113;-50
2021/01/31 10:24:36;;;;;;;6.22;3.87;;;;;;;;;;4179448;34;20118;-55
2021/01/31 10:27:23;;;;;;;9.15;4.50;;;;;;;;;;4190387;34;20126;-49
2021/01/31 10:30:22;;;;;;;6.55;3.65;;;;;;;;;;4190091;34;20101;-50
2021/01/31 10:33:04;;;;;;;3.53;3.10;;;;;;;;;;4191817;34;20105;-48
2021/01/31 10:35:37;;;;;;;4.68;3.28;;;;;;;;;;4191338;34;20222;-49
2021/01/31 10:38:33;;;;;;;5.80;2.92;;;;;;;;;;4191703;34;20199;-50
2021/01/31 10:41:16;;;;;;;3.05;2.30;;;;;;;;;;4191589;34;20105;-49
2021/01/31 10:43:42;;;;;;;;;;;;;;;;;;4192041;34;20149;-54
2021/01/31 10:46:11;;;;;;;4.25;2.37;;;;;;;;;;4203881;34;20053;-53
2021/01/31 10:52:13;;;;;;;2.85;2.03;;;;;;;;;;4233731;28;20086;-55
2021/01/31 10:54:48;;;;;;;3.05;2.20;;;;;;;;;;4189373;34;20104;-55
2021/01/31 10:57:24;;;;;;;2.83;2.10;;;;;;;;;;4191038;34;20130;-55
2021/01/31 11:00:00;;;;;;;2.33;1.80;;;;;;;;;;4190968;34;20548;-64
2021/01/31 11:02:39;;;;;;;2.67;2.10;;;;;;;;;;4191393;34;20219;-56
2021/01/31 11:05:15;;;;;;;3.37;2.50;;;;;;;;;;4190727;34;20221;-58
2021/01/31 11:07:57;;;;;;;3.72;2.50;;;;;;;;;;4179785;34;20509;-53
2021/01/31 11:10:25;;;;;;;4.87;2.37;;;;;;;;;;4178398;34;20101;-56
2021/01/31 11:12:54;;;;;;;3.40;2.58;;;;;;;;;;4178430;34;20805;-58
2021/01/31 11:15:23;;;;;;;4.00;2.50;;;;;;;;;;4190803;34;20130;-54
2021/01/31 11:17:54;;;;;;;5.43;2.97;;;;;;;;;;4191082;34;20118;-56
2021/01/31 11:20:22;;;;;;;4.65;3.25;;;;;;;;;;4190882;34;20493;-52
2021/01/31 11:22:54;;;;;;;4.97;3.08;;;;;;;;;;4190821;34;20121;-50
2021/01/31 11:25:29;;;;;;;6.00;3.62;;;;;;;;;;4190690;34;20118;-51
2021/01/31 11:27:58;;;;;;;7.40;4.15;;;;;;;;;;4178413;34;20117;-51
2021/01/31 11:30:29;;;;;;;5.60;3.53;;;;;;;;;;4191028;34;20125;-52
2021/01/31 11:33:00;;;;;;;4.50;3.12;;;;;;;;;;4166894;34;20123;-50
2021/01/31 11:35:28;;;;;;;3.60;2.55;;;;;;;;;;4190621;34;20102;-54
2021/01/31 11:37:55;;;;;;;5.47;4.12;;;;;;;;;;4178338;34;20117;-47
2021/01/31 11:40:21;;;;;;;5.93;4.10;;;;;;;;;;4178011;34;20145;-51
2021/01/31 11:42:48;;;;;;;13.40;8.18;;;;;;;;;;4190826;34;20110;-49
2021/01/31 11:45:45;;;;;;;9.75;5.87;;;;;;;;;;4198537;28;20093;-54
2021/01/31 11:48:15;;;;;;;8.27;6.25;;;;;;;;;;4192732;34;20105;-53
2021/01/31 11:50:43;;;;;;;4.93;4.30;;;;;;;;;;4195949;34;20098;-54
2021/01/31 11:53:10;;;;;;;5.03;3.20;;;;;;;;;;4190546;34;20106;-53
2021/01/31 11:55:40;;;;;;;3.40;2.83;;;;;;;;;;4190386;34;20114;-51
2021/01/31 11:58:07;;;;;;;3.85;2.37;;;;;;;;;;4190273;34;20105;-51
2021/01/31 12:00:34;;;;;;;4.90;3.50;;;;;;;;;;4177759;34;20101;-47
2021/01/31 12:03:01;;;;;;;3.62;3.08;;;;;;;;;;4190640;34;20097;-50
2021/01/31 12:05:32;;;;;;;3.70;2.80;;;;;;;;;;4190287;34;20201;-48
2021/01/31 12:08:00;;;;;;;3.20;2.45;;;;;;;;;;4178209;34;20104;-50
2021/01/31 12:10:28;;;;;;;6.57;3.90;;;;;;;;;;4190257;34;20174;-51
2021/01/31 12:12:55;;;;;;;4.85;4.32;;;;;;;;;;4190417;34;20185;-50
2021/01/31 12:15:21;;;;;;;7.30;5.07;;;;;;;;;;4177609;34;20126;-47
2021/01/31 12:17:48;;;;;;;4.50;4.07;;;;;;;;;;4190563;34;20108;-49
2021/01/31 12:20:15;;;;;;;3.90;3.22;;;;;;;;;;4190333;34;20098;-52
2021/01/31 12:22:44;;;;;;;4.15;3.12;;;;;;;;;;4190583;34;20404;-52
2021/01/31 12:25:13;;;;;;;4.72;2.87;;;;;;;;;;4190375;34;20133;-51
2021/01/31 12:27:50;;;;;;;3.40;3.10;;;;;;;;;;4177787;34;20457;-50
2021/01/31 12:30:18;;;;;;;3.75;3.30;;;;;;;;;;4190372;34;20102;-46
2021/01/31 12:32:46;;;;;;;4.40;3.50;;;;;;;;;;4190932;34;20142;-57
2021/01/31 12:35:12;;;;;;;3.83;3.42;;;;;;;;;;4192323;34;20120;-57
2021/01/31 12:37:45;;;;;;;4.93;4.20;;;;;;;;;;4192303;34;20112;-55
2021/01/31 12:40:15;;;;;;;6.95;5.47;;;;;;;;;;4192787;34;20547;-46
2021/01/31 12:42:43;;;;;;;8.15;6.80;;;;;;;;;;4179661;34;20118;-49
2021/01/31 12:45:11;;;;;;;6.30;4.70;;;;;;;;;;4179460;34;20198;-55
2021/01/31 12:47:38;;;;;;;3.70;3.40;;;;;;;;;;4203743;34;20106;-51
2021/01/31 12:50:13;;;;;;;3.22;2.92;;;;;;;;;;4194041;34;20128;-50
2021/01/31 12:52:43;;;;;;;4.65;3.60;;;;;;;;;;4206394;34;20098;-47
2021/01/31 12:55:11;;;;;;;4.82;3.40;;;;;;;;;;4206016;34;20198;-46
2021/01/31 12:57:44;;;;;;;5.18;3.97;;;;;;;;;;4206607;34;20109;-46
2021/01/31 13:00:15;;;;;;;6.05;4.87;;;;;;;;;;4206589;34;20129;-48
2021/01/31 13:02:45;;;;;;;4.82;4.37;;;;;;;;;;4193699;34;20189;-49
2021/01/31 13:05:12;;;;;;;5.12;4.25;;;;;;;;;;4206388;34;20122;-49
2021/01/31 13:07:39;;;;;;;5.65;3.85;;;;;;;;;;4206366;34;20445;-50
2021/01/31 13:10:13;;;;;;;3.70;3.03;;;;;;;;;;4205966;34;20105;-48
2021/01/31 13:12:41;;;;;;;3.42;2.97;;;;;;;;;;4192861;34;20507;-47
2021/01/31 13:15:10;;;;;;;4.22;3.10;;;;;;;;;;4206011;34;20118;-47
2021/01/31 13:17:49;;;;;;;3.75;3.17;;;;;;;;;;4206271;34;20429;-48
2021/01/31 13:20:26;;;;;;;4.57;3.28;;;;;;;;;;4194492;34;20580;-50
2021/01/31 13:22:56;;;;;;;4.28;2.87;;;;;;;;;;4206198;34;20125;-50
2021/01/31 13:25:25;;;;;;;8.02;4.20;;;;;;;;;;4182017;34;20120;-54
2021/01/31 13:28:00;;;;;;;5.32;3.85;;;;;;;;;;4206223;34;20117;-47
2021/01/31 13:30:33;;;;;;;5.50;4.10;;;;;;;;;;4206340;34;20213;-50
2021/01/31 13:33:10;;;;;;;7.18;4.43;;;;;;;;;;4205928;34;20114;-52
2021/01/31 13:35:37;;;;;;;8.30;4.65;;;;;;;;;;4193295;34;20574;-51
2021/01/31 13:38:08;;;;;;;6.03;4.43;;;;;;;;;;4193026;34;20113;-59
2021/01/31 13:40:43;;;;;;;4.35;3.05;;;;;;;;;;4206841;34;20440;-53
2021/01/31 13:43:15;;;;;;;5.20;3.25;;;;;;;;;;4206051;34;20201;-49
2021/01/31 13:45:54;;;;;;;8.10;4.57;;;;;;;;;;4193357;34;20122;-51
2021/01/31 13:48:25;;;;;;;5.83;3.70;;;;;;;;;;4206449;34;20180;-53
2021/01/31 13:50:57;;;;;;;10.10;4.10;;;;;;;;;;4207634;34;20291;-56
2021/01/31 13:53:25;;;;;;;6.25;4.00;;;;;;;;;;4208124;34;20117;-54
2021/01/31 13:55:56;;;;;;;4.32;3.40;;;;;;;;;;4196298;34;20090;-54
2021/01/31 13:58:33;;;;;;;6.85;4.30;;;;;;;;;;4194434;34;20192;-48
2021/01/31 14:01:08;;;;;;;10.75;4.53;;;;;;;;;;4206539;34;20140;-53
2021/01/31 14:03:45;;;;;;;9.60;3.83;;;;;;;;;;4205951;34;20109;-54
2021/01/31 14:06:17;;;;;;;8.45;3.72;;;;;;;;;;4193428;34;20237;-47
2021/01/31 14:08:45;;;;;;;8.02;3.85;;;;;;;;;;4205834;34;20465;-48
2021/01/31 14:11:12;;;;;;;8.38;4.68;;;;;;;;;;4205202;34;20113;-47
2021/01/31 14:13:39;;;;;;;9.75;5.22;;;;;;;;;;4205736;34;20121;-47
2021/01/31 14:16:07;;;;;;;8.88;4.78;;;;;;;;;;4204691;34;20106;-48
2021/01/31 14:18:33;;;;;;;10.20;5.30;;;;;;;;;;4205290;34;20510;-49
2021/01/31 14:21:06;;;;;;;14.50;5.57;;;;;;;;;;4192055;34;20098;-50
2021/01/31 14:23:36;;;;;;;8.55;4.82;;;;;;;;;;4191823;34;20449;-47
2021/01/31 14:26:09;;;;;;;7.90;4.32;;;;;;;;;;4204771;34;20129;-46
2021/01/31 14:28:42;;;;;;;8.80;5.20;;;;;;;;;;4205193;34;20609;-48
2021/01/31 14:31:17;;;;;;;9.70;6.37;;;;;;;;;;4204923;34;20137;-54
2021/01/31 14:33:44;;;;;;;12.82;7.00;;;;;;;;;;4204193;34;20125;-52
2021/01/31 14:36:13;;;;;;;18.65;7.95;;;;;;;;;;4204964;34;20541;-46
2021/01/31 14:38:43;;;;;;;19.98;9.27;;;;;;;;;;4204885;34;20114;-51
2021/01/31 14:41:10;;;;;;;22.17;11.90;;;;;;;;;;4204703;34;20123;-50
2021/01/31 14:43:40;;;;;;;22.50;10.40;;;;;;;;;;4204820;34;20128;-48
2021/01/31 14:46:07;;;;;;;19.45;8.77;;;;;;;;;;4204633;34;20227;-50
2021/01/31 14:48:35;;;;;;;12.77;8.38;;;;;;;;;;4205328;34;20194;-49
2021/01/31 14:51:03;;;;;;;13.68;8.60;;;;;;;;;;4181026;34;20214;-49
2021/01/31 14:53:31;;;;;;;18.58;7.53;;;;;;;;;;4192040;34;20089;-51
2021/01/31 14:56:06;;;;;;;20.17;8.43;;;;;;;;;;4204102;34;20097;-52
2021/01/31 14:58:57;;;;;;;18.27;8.15;;;;;;;;;;4180608;34;20290;-51
2021/01/31 15:01:24;;;;;;;14.13;7.97;;;;;;;;;;4204921;34;20113;-52
2021/01/31 15:03:52;;;;;;;20.50;8.73;;;;;;;;;;4204552;34;20089;-50
2021/01/31 15:06:19;;;;;;;16.05;9.35;;;;;;;;;;4204331;34;20098;-46
2021/01/31 15:08:48;;;;;;;22.73;9.63;;;;;;;;;;4205119;34;20141;-51
2021/01/31 15:11:14;;;;;;;23.98;10.15;;;;;;;;;;4204488;34;20114;-55
2021/01/31 15:13:40;;;;;;;20.65;9.30;;;;;;;;;;4192127;34;20116;-47
2021/01/31 15:16:07;;;;;;;17.40;9.70;;;;;;;;;;4191638;34;20106;-49
2021/01/31 15:18:35;;;;;;;19.02;11.35;;;;;;;;;;4191756;34;20095;-45
2021/01/31 15:21:08;;;;;;;20.42;11.73;;;;;;;;;;4204774;34;20132;-45
2021/01/31 15:23:41;;;;;;;20.48;11.85;;;;;;;;;;4204914;34;20137;-51
2021/01/31 15:26:12;;;;;;;19.67;12.13;;;;;;;;;;4204450;34;20197;-55
2021/01/31 15:28:42;;;;;;;21.95;11.32;;;;;;;;;;4181122;34;20446;-51
2021/01/31 15:31:11;;;;;;;18.02;10.55;;;;;;;;;;4180344;34;20140;-52